This is the latest recevied weather packets stored in our database for station/object WA1RYQ. If no packets are shown the sender has not sent any weather packets the latest 10 day(s).
| Time | Temp. | Humidity | Pressure | Rain* | Wind** | Luminosity | Snow |
|---|---|---|---|---|---|---|---|
| 1777437636 | 23.89° C | 75% | 1017.2 hPa | 0 mm | - | 0 W/m² | - |
| 1777436111 | 23.89° C | 74% | 1017.5 hPa | 0 mm | - | 0 W/m² | - |
| 1777435831 | 23.89° C | 75% | 1017.5 hPa | 0 mm | - | 0 W/m² | - |
| 1777435214 | 23.33° C | 76% | 1017.6 hPa | 0 mm | - | 0 W/m² | - |
| 1777432223 | 22.78° C | 77% | 1018.5 hPa | 0 mm | - | 0 W/m² | - |
| 1777430727 | 23.33° C | 75% | 1018.3 hPa | 0 mm | - | 0 W/m² | - |
| 1777430445 | 23.33° C | 75% | 1018.2 hPa | 0 mm | - | 0 W/m² | - |
| 1777429204 | 23.89° C | 74% | 1017.6 hPa | 0 mm | - | 0 W/m² | - |
| 1777428922 | 23.33° C | 74% | 1017.6 hPa | 0 mm | - | 0 W/m² | - |
| 1777428643 | 23.33° C | 74% | 1017.7 hPa | 0 mm | - | 0 W/m² | - |
| 1777425308 | 24.44° C | 73% | 1017.2 hPa | 0 mm | - | 0 W/m² | - |
| 1777424748 | 24.44° C | 73% | 1017.3 hPa | 0 mm | - | 0 W/m² | - |
| 1777424409 | 24.44° C | 73% | 1017.3 hPa | 0 mm | - | 0 W/m² | - |
| 1777419328 | 26.67° C | 52% | 1016.8 hPa | 0 mm | - | 19 W/m² | - |
| 1777418706 | 26.67° C | 52% | 1016.8 hPa | 0 mm | - | 23 W/m² | - |
| 1777418431 | 26.67° C | 53% | 1016.9 hPa | 0 mm | - | 25 W/m² | - |
| 1777417202 | 27.22° C | 52% | 1017 hPa | 0 mm | - | 33 W/m² | - |
| 1777416926 | 27.22° C | 53% | 1016.9 hPa | 0 mm | - | 35 W/m² | - |
| 1777416370 | 27.22° C | 52% | 1016.9 hPa | 0 mm | - | 37 W/m² | - |
| 1777416043 | 27.22° C | 55% | 1017 hPa | 0 mm | - | 39 W/m² | - |
| 1777412444 | 27.78° C | 54% | 1017.3 hPa | 0 mm | - | 54 W/m² | - |
| 1777408513 | 28.33° C | 60% | 1018 hPa | 0 mm | - | 657 W/m² | - |
| 1777405227 | 29.44° C | 62% | 1018.8 hPa | 0 mm | - | 719 W/m² | - |
| 1777401046 | 28.33° C | 66% | 1019.6 hPa | 0 mm | - | 916 W/m² | - |
| 1777400414 | 27.78° C | 69% | 1019.6 hPa | 0 mm | - | 919 W/m² | - |
* Rain latest hour (hover to see other rain measurements)
** Current wind speed in m/s (hover to see current wind gust speed)